Time;durP1;ratioP1;P1;durP2;ratioP2;P2;SDS_P1;SDS_P2;PMS_P1;PMS_P2;Temp;Humidity;BMP_temperature;BMP_pressure;BME280_temperature;BME280_humidity;BME280_pressure;Samples;Min_cycle;Max_cycle;Signal;HPM_P1;HPM_P2
2022/06/07 00:01:09;;;;;;;2.97;1.65;;;17.70;1.00;;;;;;7368663;19;20003;-61
2022/06/07 00:03:39;;;;;;;3.05;1.83;;;17.70;1.00;;;;;;7366314;19;20074;-61
2022/06/07 00:06:09;;;;;;;4.93;1.58;;;17.80;1.00;;;;;;7369708;19;20015;-62
2022/06/07 00:08:41;;;;;;;2.30;1.52;;;17.70;1.00;;;;;;7392255;19;20014;-59
2022/06/07 00:11:11;;;;;;;3.47;1.67;;;17.70;1.00;;;;;;7368889;19;20460;-62
2022/06/07 00:13:42;;;;;;;2.35;1.45;;;17.60;1.00;;;;;;7365888;19;20019;-61
2022/06/07 00:16:13;;;;;;;3.90;1.52;;;17.60;1.00;;;;;;7363421;19;20019;-60
2022/06/07 00:18:43;;;;;;;1.70;1.60;;;17.60;1.00;;;;;;7370745;19;20079;-60
2022/06/07 00:21:14;;;;;;;4.20;1.90;;;17.60;1.00;;;;;;7368360;19;20074;-62
2022/06/07 00:23:48;;;;;;;3.80;1.63;;;17.50;1.00;;;;;;7385932;19;20007;-61
2022/06/07 00:26:18;;;;;;;4.28;1.98;;;17.50;1.00;;;;;;7365100;19;20091;-61
2022/06/07 00:28:48;;;;;;;2.90;1.60;;;17.40;1.00;;;;;;7368711;19;20025;-61
2022/06/07 00:31:18;;;;;;;4.38;1.80;;;17.40;1.00;;;;;;7369019;19;20010;-61
2022/06/07 00:33:48;;;;;;;1.95;1.48;;;17.40;1.00;;;;;;7362316;19;20011;-61
2022/06/07 00:36:19;;;;;;;2.58;1.30;;;17.40;1.00;;;;;;7365099;19;20014;-61
2022/06/07 00:39:04;;;;;;;2.75;1.90;;;17.30;1.00;;;;;;7389785;19;20022;-62
2022/06/07 00:41:34;;;;;;;6.07;1.85;;;17.40;1.00;;;;;;7363456;19;20526;-61
2022/06/07 00:44:37;;;;;;;1.98;1.73;;;17.20;1.00;;;;;;7360183;19;20191;-61
2022/06/07 00:47:12;;;;;;;1.65;1.27;;;17.20;1.00;;;;;;7364131;19;20010;-61
2022/06/07 00:49:47;;;;;;;2.95;1.50;;;17.30;1.00;;;;;;7369325;19;20018;-61
2022/06/07 00:52:18;;;;;;;2.53;1.80;;;17.20;1.00;;;;;;7368600;19;20088;-61
2022/06/07 00:54:51;;;;;;;3.05;1.30;;;17.20;1.00;;;;;;7362972;19;20025;-61
2022/06/07 00:57:21;;;;;;;3.10;1.45;;;17.10;1.00;;;;;;7362337;19;20014;-61
2022/06/07 00:59:51;;;;;;;2.88;1.70;;;17.10;1.00;;;;;;7389786;19;20010;-61
2022/06/07 01:02:22;;;;;;;2.75;1.30;;;17.00;1.00;;;;;;7367093;19;20006;-61
2022/06/07 01:04:52;;;;;;;1.80;1.27;;;17.00;1.00;;;;;;7363393;19;20097;-63
2022/06/07 01:12:51;;;;;;;2.13;1.30;;;16.90;1.00;;;;;;7366014;19;20155;-62
2022/06/07 01:15:21;;;;;;;6.60;1.40;;;16.80;1.00;;;;;;7367808;19;20016;-62
2022/06/07 01:17:51;;;;;;;3.75;1.35;;;16.70;1.00;;;;;;7385982;19;20682;-60
2022/06/07 01:20:21;;;;;;;1.67;1.50;;;16.60;1.00;;;;;;7365228;19;20010;-60
2022/06/07 01:22:54;;;;;;;2.08;1.40;;;16.70;1.00;;;;;;7362954;19;20018;-61
2022/06/07 01:25:24;;;;;;;2.30;1.30;;;16.60;1.00;;;;;;7366453;19;20035;-61
2022/06/07 01:27:54;;;;;;;3.05;1.80;;;16.40;1.00;;;;;;7360951;19;20408;-61
2022/06/07 01:30:26;;;;;;;1.88;1.23;;;16.40;1.00;;;;;;7363578;19;20018;-61
2022/06/07 01:32:56;;;;;;;1.70;1.40;;;16.40;1.00;;;;;;7384744;19;20018;-61
2022/06/07 01:35:26;;;;;;;1.63;1.40;;;16.40;1.00;;;;;;7364528;19;20025;-62
2022/06/07 01:37:59;;;;;;;3.05;1.35;;;16.40;1.00;;;;;;7360160;19;20085;-60
2022/06/07 01:43:11;;;;;;;1.75;1.25;;;16.30;1.00;;;;;;7363045;19;20481;-61
2022/06/07 01:45:41;;;;;;;1.92;1.30;;;16.30;1.00;;;;;;7364053;19;20018;-61
2022/06/07 01:48:11;;;;;;;1.88;1.40;;;16.30;1.00;;;;;;7361136;19;20021;-62
2022/06/07 01:50:41;;;;;;;3.03;1.38;;;16.30;1.00;;;;;;7385339;19;20018;-61
2022/06/07 01:53:13;;;;;;;1.75;1.30;;;16.20;1.60;;;;;;7361672;19;20014;-61
2022/06/07 01:55:43;;;;;;;5.63;1.42;;;16.10;1.90;;;;;;7364376;19;20007;-61
2022/06/07 01:58:13;;;;;;;2.13;1.13;;;16.00;2.60;;;;;;7360153;19;20040;-61
2022/06/07 02:00:43;;;;;;;5.68;2.25;;;15.90;4.30;;;;;;7364674;19;20496;-61
2022/06/07 02:03:13;;;;;;;2.38;1.50;;;15.90;4.30;;;;;;7362485;19;20060;-62
2022/06/07 02:05:43;;;;;;;3.90;1.65;;;15.90;4.40;;;;;;7384757;19;20021;-61
2022/06/07 02:08:15;;;;;;;2.97;1.60;;;15.90;5.00;;;;;;7360173;19;20482;-61
2022/06/07 02:10:45;;;;;;;3.22;1.23;;;15.90;4.40;;;;;;7364114;19;20089;-61
2022/06/07 02:13:15;;;;;;;2.70;1.10;;;15.90;3.70;;;;;;7361761;19;20045;-61
2022/06/07 02:15:45;;;;;;;2.88;1.40;;;15.90;3.90;;;;;;7364426;19;20018;-61
2022/06/07 02:18:16;;;;;;;2.67;1.20;;;15.90;3.90;;;;;;7359447;19;20024;-61
2022/06/07 02:20:46;;;;;;;2.88;1.50;;;15.80;2.90;;;;;;7385758;19;20014;-61
2022/06/07 02:23:18;;;;;;;3.58;1.40;;;15.80;4.10;;;;;;7361203;19;20106;-61
2022/06/07 02:25:51;;;;;;;2.13;1.13;;;15.80;4.30;;;;;;7362565;19;20014;-61
2022/06/07 02:28:25;;;;;;;2.17;1.10;;;15.80;5.00;;;;;;7358416;19;20040;-61
2022/06/07 02:30:56;;;;;;;4.28;1.15;;;15.80;3.20;;;;;;7363511;19;20014;-61
2022/06/07 02:33:27;;;;;;;2.70;1.30;;;15.80;4.30;;;;;;7361225;19;20074;-61
2022/06/07 02:35:59;;;;;;;1.33;1.10;;;15.80;3.30;;;;;;7383199;19;20014;-60
2022/06/07 02:38:33;;;;;;;1.92;1.10;;;15.80;3.80;;;;;;7361882;19;20011;-61
2022/06/07 02:41:06;;;;;;;1.38;1.10;;;15.80;4.30;;;;;;7364170;19;20006;-61
2022/06/07 02:43:36;;;;;;;1.55;1.13;;;15.70;2.80;;;;;;7362687;19;20087;-61
2022/06/07 02:46:06;;;;;;;2.05;1.20;;;15.80;4.70;;;;;;7360252;19;20022;-62
2022/06/07 02:48:39;;;;;;;3.47;1.10;;;15.90;4.60;;;;;;7365460;19;20092;-60
2022/06/07 02:51:10;;;;;;;1.13;1.02;;;15.80;2.80;;;;;;7364898;19;20494;-61
2022/06/07 02:53:42;;;;;;;1.77;1.00;;;15.90;4.90;;;;;;7384897;19;20010;-62
2022/06/07 02:56:13;;;;;;;3.80;1.30;;;15.80;3.20;;;;;;7357070;19;20015;-62
2022/06/07 02:58:43;;;;;;;1.65;1.23;;;15.80;4.30;;;;;;7362250;19;20122;-61
2022/06/07 03:01:13;;;;;;;1.65;1.30;;;15.80;4.20;;;;;;7363675;19;20010;-61
2022/06/07 03:03:43;;;;;;;5.85;1.40;;;15.80;4.30;;;;;;7365467;19;20017;-60
2022/06/07 03:06:14;;;;;;;2.08;1.10;;;15.90;4.30;;;;;;7362710;19;20010;-61
2022/06/07 03:08:47;;;;;;;2.58;1.10;;;15.90;4.30;;;;;;7392606;19;20033;-60
2022/06/07 03:11:22;;;;;;;4.03;1.30;;;15.90;4.10;;;;;;7369169;19;20025;-61
2022/06/07 03:13:52;;;;;;;2.65;0.88;;;15.90;2.50;;;;;;7367544;19;20007;-61
2022/06/07 03:16:22;;;;;;;3.15;1.02;;;15.90;2.90;;;;;;7365368;19;20101;-61
2022/06/07 03:18:52;;;;;;;1.52;1.10;;;15.90;1.30;;;;;;7370690;19;20014;-61
2022/06/07 03:21:22;;;;;;;1.80;1.10;;;15.90;1.00;;;;;;7370382;19;20014;-62
2022/06/07 03:23:55;;;;;;;1.92;1.00;;;15.90;1.00;;;;;;7387473;19;20017;-62
2022/06/07 03:26:25;;;;;;;6.13;1.67;;;15.90;1.00;;;;;;7364557;19;20032;-62
2022/06/07 03:28:55;;;;;;;0.90;0.85;;;15.90;1.00;;;;;;7369973;19;20007;-60
2022/06/07 03:31:25;;;;;;;1.40;1.00;;;15.90;1.00;;;;;;7371156;19;20014;-60
2022/06/07 03:33:55;;;;;;;1.08;0.90;;;15.90;1.00;;;;;;7368572;19;20015;-60
2022/06/07 03:36:28;;;;;;;1.80;0.93;;;15.80;1.00;;;;;;7362546;19;20021;-60
2022/06/07 03:39:06;;;;;;;3.40;1.10;;;15.80;1.00;;;;;;7392452;19;20406;-61
2022/06/07 03:41:36;;;;;;;2.47;1.05;;;15.90;1.00;;;;;;7370344;19;20631;-61
2022/06/07 03:44:08;;;;;;;2.58;1.23;;;15.80;2.70;;;;;;7367649;19;20078;-61
2022/06/07 03:46:38;;;;;;;3.13;1.20;;;15.80;2.30;;;;;;7362455;19;20531;-61
2022/06/07 03:49:08;;;;;;;1.40;1.30;;;15.80;4.30;;;;;;7370996;19;20018;-61
2022/06/07 03:51:39;;;;;;;1.67;1.27;;;15.80;4.10;;;;;;7369320;19;20082;-62
2022/06/07 03:54:11;;;;;;;2.15;1.55;;;15.70;5.30;;;;;;7375751;19;20010;-62
2022/06/07 03:56:41;;;;;;;1.73;1.23;;;15.70;5.00;;;;;;7383191;19;20015;-61
2022/06/07 03:59:11;;;;;;;2.15;1.30;;;15.80;5.90;;;;;;7368875;19;20010;-60
2022/06/07 04:01:41;;;;;;;3.58;1.45;;;15.80;4.50;;;;;;7369908;19;20006;-60
2022/06/07 04:04:12;;;;;;;2.60;1.38;;;15.80;2.70;;;;;;7368552;19;20010;-61
2022/06/07 04:08:10;;;;;;;2.83;1.08;;;15.90;4.00;;;;;;7362989;19;20010;-60
2022/06/07 04:09:39;;;;;;;2.95;1.17;;;15.90;2.20;;;;;;7370172;19;20029;-61
2022/06/07 04:12:11;;;;;;;3.33;1.10;;;15.90;3.40;;;;;;7375144;19;20656;-61
2022/06/07 04:14:41;;;;;;;3.38;1.35;;;16.00;2.10;;;;;;7387543;19;20031;-61
2022/06/07 04:17:12;;;;;;;1.60;1.20;;;15.90;1.70;;;;;;7361917;19;20351;-61
2022/06/07 04:19:44;;;;;;;1.88;1.02;;;16.00;1.20;;;;;;7366947;19;20168;-61
2022/06/07 04:22:14;;;;;;;1.95;1.10;;;16.00;1.20;;;;;;7368200;19;20017;-60
2022/06/07 04:24:46;;;;;;;5.05;1.38;;;15.90;1.50;;;;;;7366657;19;20039;-61
2022/06/07 04:27:16;;;;;;;5.07;1.30;;;15.80;1.00;;;;;;7360404;19;20024;-60
2022/06/07 04:29:46;;;;;;;2.67;1.30;;;15.90;3.30;;;;;;7391880;19;20070;-61
2022/06/07 04:32:16;;;;;;;5.35;1.50;;;15.90;2.30;;;;;;7368003;19;20010;-61
2022/06/07 04:34:46;;;;;;;1.95;1.20;;;15.90;1.00;;;;;;7367126;19;20007;-61
2022/06/07 04:37:17;;;;;;;3.03;1.50;;;15.90;1.40;;;;;;7361853;19;20006;-61
2022/06/07 04:39:49;;;;;;;3.15;1.13;;;15.90;2.90;;;;;;7368748;19;20074;-61
2022/06/07 04:42:19;;;;;;;3.60;1.30;;;15.90;1.50;;;;;;7368353;19;20020;-62
2022/06/07 04:44:51;;;;;;;2.58;1.00;;;16.00;1.00;;;;;;7387902;19;20017;-61
2022/06/07 04:47:21;;;;;;;3.17;1.20;;;15.90;1.00;;;;;;7362278;19;20466;-61
2022/06/07 04:49:51;;;;;;;2.67;1.20;;;16.00;1.00;;;;;;7367362;19;20463;-61
2022/06/07 04:52:21;;;;;;;1.60;1.20;;;15.90;2.50;;;;;;7368179;19;20007;-61
2022/06/07 04:54:54;;;;;;;2.25;1.20;;;15.90;4.30;;;;;;7366523;19;20074;-61
2022/06/07 04:57:24;;;;;;;2.65;1.10;;;15.90;3.90;;;;;;7359591;19;20038;-61
2022/06/07 04:59:54;;;;;;;3.20;1.40;;;15.90;1.60;;;;;;7389020;19;20014;-60
2022/06/07 05:02:24;;;;;;;1.50;1.17;;;16.00;1.00;;;;;;7367836;19;20006;-61
2022/06/07 05:04:54;;;;;;;2.25;1.40;;;16.00;1.00;;;;;;7365283;19;20014;-60
2022/06/07 05:07:24;;;;;;;1.73;1.27;;;16.10;1.00;;;;;;7361771;19;20006;-61
2022/06/07 05:09:56;;;;;;;2.65;1.70;;;16.20;1.00;;;;;;7368023;19;20338;-60
2022/06/07 05:12:28;;;;;;;1.67;1.20;;;16.30;1.00;;;;;;7367998;19;20245;-60
2022/06/07 05:14:57;;;;;;;3.47;1.30;;;16.30;1.00;;;;;;7385839;19;20387;-60
2022/06/07 05:17:27;;;;;;;2.15;1.00;;;16.40;1.00;;;;;;7360886;19;20010;-60
2022/06/07 05:19:57;;;;;;;2.70;1.10;;;16.50;1.00;;;;;;7365592;19;20486;-60
2022/06/07 05:22:28;;;;;;;5.30;1.50;;;16.60;1.00;;;;;;7367017;19;20006;-61
2022/06/07 05:25:00;;;;;;;9.15;1.15;;;16.80;1.00;;;;;;7366607;19;20006;-61
2022/06/07 05:27:38;;;;;;;3.38;1.15;;;16.80;1.00;;;;;;7356042;19;20025;-61
2022/06/07 05:30:10;;;;;;;3.28;1.25;;;16.80;1.00;;;;;;7385267;19;20010;-63
2022/06/07 05:32:40;;;;;;;6.50;0.98;;;16.70;1.00;;;;;;7387092;19;20073;-61
2022/06/07 05:35:11;;;;;;;2.67;1.23;;;16.90;1.00;;;;;;7364993;19;20078;-62
2022/06/07 05:37:41;;;;;;;2.13;1.00;;;17.10;1.00;;;;;;7362925;19;20017;-61
2022/06/07 05:40:14;;;;;;;1.10;0.80;;;17.20;1.00;;;;;;7365432;19;20006;-60
2022/06/07 05:42:44;;;;;;;1.67;1.00;;;17.20;1.00;;;;;;7363786;19;20446;-61
2022/06/07 05:45:14;;;;;;;2.20;1.10;;;17.20;1.00;;;;;;7366377;19;20011;-62
2022/06/07 05:47:44;;;;;;;2.78;1.00;;;17.20;1.00;;;;;;7382666;19;20020;-62
2022/06/07 05:50:14;;;;;;;1.75;1.05;;;17.50;1.00;;;;;;7365765;19;20384;-60
2022/06/07 05:52:44;;;;;;;2.17;1.05;;;17.50;1.00;;;;;;7365015;19;20011;-61
2022/06/07 05:55:16;;;;;;;3.80;1.05;;;17.60;1.00;;;;;;7365905;19;20467;-61
2022/06/07 05:57:50;;;;;;;4.20;1.20;;;17.60;1.00;;;;;;7359866;19;20018;-61
2022/06/07 06:00:21;;;;;;;1.67;1.13;;;18.20;1.00;;;;;;7365695;19;20010;-60
2022/06/07 06:02:51;;;;;;;2.72;1.00;;;19.10;1.00;;;;;;7384210;19;20050;-61
2022/06/07 06:05:21;;;;;;;2.38;1.02;;;18.60;1.00;;;;;;7365542;19;20002;-61
2022/06/07 06:10:36;;;;;;;2.63;1.10;;;18.50;1.00;;;;;;7364981;19;20081;-62
2022/06/07 06:13:06;;;;;;;1.45;1.10;;;18.90;1.00;;;;;;7361271;19;20346;-61
2022/06/07 06:15:36;;;;;;;1.40;1.00;;;19.00;1.00;;;;;;7364672;19;20303;-61
2022/06/07 06:18:06;;;;;;;2.65;1.30;;;19.00;1.00;;;;;;7380944;19;20010;-61
2022/06/07 06:20:38;;;;;;;2.15;1.95;;;19.00;1.00;;;;;;7363728;19;20026;-61
2022/06/07 06:23:08;;;;;;;2.65;1.15;;;19.00;1.00;;;;;;7361043;19;20010;-61
2022/06/07 06:25:43;;;;;;;3.92;1.88;;;18.70;1.00;;;;;;7363459;19;20518;-61
2022/06/07 06:28:13;;;;;;;3.38;1.00;;;18.40;1.00;;;;;;7358854;19;20081;-61
2022/06/07 06:30:45;;;;;;;4.35;1.10;;;18.40;1.00;;;;;;7364508;19;20011;-62
2022/06/07 06:33:15;;;;;;;2.13;1.15;;;18.70;1.00;;;;;;7361378;19;20014;-61
2022/06/07 06:35:51;;;;;;;2.95;1.17;;;18.40;1.00;;;;;;7385743;19;20913;-60
2022/06/07 06:38:21;;;;;;;2.92;1.55;;;17.90;1.00;;;;;;7363429;19;20098;-61
2022/06/07 06:40:54;;;;;;;3.75;1.10;;;18.80;1.00;;;;;;7369837;19;20006;-61
2022/06/07 06:43:24;;;;;;;1.42;1.00;;;18.20;1.00;;;;;;7368801;19;20086;-61
2022/06/07 06:45:57;;;;;;;3.63;1.05;;;18.20;1.00;;;;;;7371605;19;20027;-61
2022/06/07 06:48:27;;;;;;;2.60;1.10;;;18.70;1.00;;;;;;7368183;19;20011;-60
2022/06/07 06:51:02;;;;;;;2.17;1.10;;;18.50;1.00;;;;;;7394121;19;20078;-61
2022/06/07 06:53:32;;;;;;;3.30;1.13;;;18.30;1.00;;;;;;7368626;19;20090;-62
2022/06/07 06:56:04;;;;;;;3.35;1.23;;;18.50;1.00;;;;;;7367435;19;20074;-62
2022/06/07 06:58:34;;;;;;;2.92;1.30;;;18.40;1.00;;;;;;7368276;19;20010;-61
2022/06/07 07:01:06;;;;;;;5.47;1.20;;;18.70;1.00;;;;;;7371821;19;20016;-60
2022/06/07 07:03:37;;;;;;;2.03;1.13;;;18.70;1.00;;;;;;7367597;19;20355;-60
2022/06/07 07:06:11;;;;;;;2.17;1.20;;;19.20;1.00;;;;;;7389597;19;20017;-62
2022/06/07 07:08:42;;;;;;;2.03;0.80;;;19.20;1.00;;;;;;7367557;19;20470;-62
2022/06/07 07:11:18;;;;;;;2.67;0.95;;;18.80;1.00;;;;;;7370627;19;20127;-60
2022/06/07 07:13:50;;;;;;;1.92;0.98;;;19.30;1.00;;;;;;7368153;19;20014;-61
2022/06/07 07:16:23;;;;;;;4.85;0.93;;;19.20;1.00;;;;;;7365359;19;20018;-61
2022/06/07 07:18:53;;;;;;;4.50;1.10;;;20.20;1.00;;;;;;7369301;19;20500;-61
2022/06/07 07:21:26;;;;;;;2.90;0.90;;;20.00;1.00;;;;;;7368764;19;20026;-61
2022/06/07 07:23:58;;;;;;;2.47;1.05;;;20.20;1.00;;;;;;7388443;19;20011;-61
2022/06/07 07:26:35;;;;;;;0.85;0.70;;;19.60;1.00;;;;;;7368234;19;20022;-61
2022/06/07 07:29:05;;;;;;;4.38;1.30;;;19.90;1.00;;;;;;7369895;19;20518;-60
2022/06/07 07:31:38;;;;;;;1.58;0.70;;;19.50;1.00;;;;;;7370817;19;20364;-61
2022/06/07 07:34:11;;;;;;;1.42;0.80;;;20.10;1.00;;;;;;7367252;19;20482;-61
2022/06/07 07:36:46;;;;;;;1.30;0.80;;;20.20;1.00;;;;;;7364062;19;20090;-60
2022/06/07 07:39:23;;;;;;;1.10;0.82;;;19.40;1.00;;;;;;7370233;19;20015;-61
2022/06/07 07:41:56;;;;;;;3.63;1.02;;;19.80;1.00;;;;;;7388625;19;20018;-61
2022/06/07 07:44:29;;;;;;;2.50;0.95;;;19.10;1.00;;;;;;7366269;19;20002;-61
2022/06/07 07:46:59;;;;;;;1.10;0.68;;;19.20;1.00;;;;;;7364186;19;20015;-61
2022/06/07 07:49:31;;;;;;;3.17;1.08;;;19.10;1.00;;;;;;7367960;19;20007;-61
2022/06/07 07:52:00;;;;;;;1.75;0.82;;;19.20;1.00;;;;;;7369495;19;20040;-61
2022/06/07 07:54:30;;;;;;;1.20;0.95;;;19.30;1.00;;;;;;7366815;19;20030;-61
2022/06/07 07:57:03;;;;;;;1.60;0.95;;;19.60;1.00;;;;;;7384583;19;20445;-61
2022/06/07 07:59:35;;;;;;;3.03;1.00;;;19.80;1.00;;;;;;7369609;19;20060;-61
2022/06/07 08:02:06;;;;;;;1.27;1.02;;;19.70;1.00;;;;;;7365745;19;20082;-60
2022/06/07 08:04:35;;;;;;;2.00;1.13;;;19.90;1.00;;;;;;7364779;19;20121;-62
2022/06/07 08:07:07;;;;;;;0.90;0.90;;;20.90;1.00;;;;;;7362591;19;20036;-62
2022/06/07 08:09:37;;;;;;;2.33;0.90;;;20.60;1.00;;;;;;7369134;19;20488;-61
2022/06/07 08:12:10;;;;;;;3.25;1.00;;;20.20;1.00;;;;;;7389173;19;20078;-61
2022/06/07 08:14:40;;;;;;;2.03;1.30;;;20.60;1.00;;;;;;7366228;19;20003;-61
2022/06/07 08:17:10;;;;;;;1.20;1.00;;;21.00;1.00;;;;;;7361861;19;20006;-62
2022/06/07 08:19:40;;;;;;;1.20;0.80;;;20.80;1.00;;;;;;7369609;19;20073;-61
2022/06/07 08:22:10;;;;;;;0.85;0.82;;;20.70;1.00;;;;;;7367776;19;20368;-61
2022/06/07 08:24:41;;;;;;;3.58;1.13;;;19.80;1.00;;;;;;7366214;19;20093;-62
2022/06/07 08:27:13;;;;;;;3.10;1.00;;;20.10;1.00;;;;;;7360392;19;20014;-63
2022/06/07 08:29:44;;;;;;;3.40;1.00;;;20.40;1.00;;;;;;7388963;19;20074;-62
2022/06/07 08:32:13;;;;;;;1.50;0.98;;;20.60;1.00;;;;;;7366434;19;20058;-62
2022/06/07 08:37:39;;;;;;;1.60;1.10;;;20.80;1.00;;;;;;7360944;19;20073;-62
2022/06/07 08:40:13;;;;;;;3.55;1.30;;;20.90;1.00;;;;;;7367918;19;20017;-62
2022/06/07 08:42:53;;;;;;;5.00;1.05;;;20.50;1.00;;;;;;7364700;19;20010;-61
2022/06/07 08:45:28;;;;;;;1.23;1.00;;;19.90;1.00;;;;;;7367983;19;20017;-61
2022/06/07 08:48:08;;;;;;;2.70;1.10;;;20.50;1.00;;;;;;7384671;19;20375;-61
2022/06/07 08:50:43;;;;;;;3.22;0.85;;;20.50;1.00;;;;;;7368290;19;20382;-61
2022/06/07 08:53:17;;;;;;;1.02;0.90;;;20.70;1.00;;;;;;7363928;19;20006;-61
2022/06/07 08:55:49;;;;;;;5.07;0.90;;;20.80;1.00;;;;;;7365486;19;20011;-61
2022/06/07 08:58:26;;;;;;;1.27;0.88;;;20.70;1.00;;;;;;7362250;19;20011;-60
2022/06/07 09:00:59;;;;;;;1.83;0.90;;;21.30;1.00;;;;;;7364968;19;20474;-61
2022/06/07 09:03:40;;;;;;;3.37;0.87;;;21.50;1.00;;;;;;7363897;19;20471;-62
2022/06/07 09:06:19;;;;;;;3.70;0.82;;;21.40;1.00;;;;;;7362481;19;20045;-63
2022/06/07 09:08:52;;;;;;;2.92;0.85;;;21.50;1.00;;;;;;7386954;19;20006;-62
2022/06/07 09:14:11;;;;;;;2.97;0.70;;;19.90;1.00;;;;;;7363694;19;20023;-61
2022/06/07 09:16:43;;;;;;;3.60;1.00;;;20.40;1.00;;;;;;7363038;19;20015;-61
2022/06/07 09:19:17;;;;;;;0.88;0.60;;;20.80;1.00;;;;;;7366296;19;20011;-61
2022/06/07 09:21:48;;;;;;;;;;;20.30;1.00;;;;;;7367639;19;20010;-61
2022/06/07 09:24:27;;;;;;;3.10;0.85;;;20.20;1.00;;;;;;7363607;19;19926;-60
2022/06/07 09:27:15;;;;;;;4.32;0.95;;;20.70;1.00;;;;;;7381335;19;20019;-62
2022/06/07 09:29:54;;;;;;;1.35;0.90;;;20.80;1.00;;;;;;7366759;19;20022;-62
2022/06/07 09:32:27;;;;;;;1.10;0.70;;;21.20;1.00;;;;;;7365707;19;20067;-61
2022/06/07 09:35:01;;;;;;;0.73;0.60;;;21.20;1.00;;;;;;7363388;19;20006;-61
2022/06/07 09:37:35;;;;;;;1.25;0.73;;;21.60;1.00;;;;;;7358919;19;20078;-61
2022/06/07 09:40:31;;;;;;;1.45;0.80;;;21.70;1.00;;;;;;7366634;19;20011;-61
2022/06/07 09:43:08;;;;;;;2.00;0.65;;;20.30;1.00;;;;;;7362306;19;20085;-61
2022/06/07 09:45:55;;;;;;;2.25;0.82;;;20.50;1.00;;;;;;7364995;19;20010;-61
2022/06/07 09:48:32;;;;;;;0.75;0.60;;;21.20;1.00;;;;;;7362354;19;20021;-62
2022/06/07 09:51:05;;;;;;;2.05;0.63;;;21.60;1.00;;;;;;7387434;19;20017;-61
2022/06/07 09:53:37;;;;;;;1.40;0.90;;;21.20;1.00;;;;;;7362896;19;20031;-61
2022/06/07 09:56:22;;;;;;;1.48;0.70;;;21.50;1.00;;;;;;7359483;19;20352;-61
2022/06/07 09:59:09;;;;;;;3.38;0.80;;;22.10;1.00;;;;;;7362817;19;20015;-61
2022/06/07 10:01:47;;;;;;;1.90;0.80;;;21.80;1.00;;;;;;7364024;19;20339;-61
2022/06/07 10:04:27;;;;;;;1.35;0.70;;;21.50;1.00;;;;;;7362183;19;20031;-61
2022/06/07 10:07:01;;;;;;;1.20;0.70;;;20.70;1.00;;;;;;7357470;19;20030;-61
2022/06/07 10:09:49;;;;;;;1.65;0.60;;;20.80;1.00;;;;;;7364887;19;20015;-62
2022/06/07 10:12:28;;;;;;;2.55;0.88;;;21.10;1.00;;;;;;7363078;19;20021;-62
2022/06/07 10:15:21;;;;;;;1.83;0.70;;;21.00;1.00;;;;;;7384444;19;20119;-61
2022/06/07 10:18:04;;;;;;;1.17;0.60;;;21.40;1.00;;;;;;7360521;19;20078;-61
2022/06/07 10:20:48;;;;;;;5.10;3.35;;;21.60;1.00;;;;;;7365432;19;20013;-62
2022/06/07 10:23:37;;;;;;;2.95;0.50;;;21.90;1.00;;;;;;7360197;19;20026;-62
2022/06/07 10:26:21;;;;;;;1.45;0.80;;;21.30;1.00;;;;;;7360603;19;20014;-61
2022/06/07 10:29:08;;;;;;;2.08;0.82;;;21.10;1.00;;;;;;7361927;19;20029;-61
2022/06/07 10:31:44;;;;;;;1.83;0.90;;;22.00;1.00;;;;;;7365219;19;20090;-60
2022/06/07 10:34:27;;;;;;;2.70;0.88;;;22.20;1.00;;;;;;7360263;19;20006;-61
2022/06/07 10:37:06;;;;;;;4.63;0.70;;;21.60;1.00;;;;;;7355771;19;20047;-62
2022/06/07 10:39:50;;;;;;;0.70;0.60;;;22.40;1.00;;;;;;7362794;19;20013;-61
2022/06/07 10:42:28;;;;;;;1.15;0.70;;;21.60;1.00;;;;;;7362777;19;20019;-62
2022/06/07 10:45:10;;;;;;;1.13;0.90;;;21.90;1.00;;;;;;7381444;19;20006;-62
2022/06/07 10:47:49;;;;;;;4.22;0.80;;;22.70;1.00;;;;;;7356906;19;20016;-61
2022/06/07 10:50:26;;;;;;;0.82;0.63;;;22.90;1.00;;;;;;7363439;19;20082;-61
2022/06/07 10:53:03;;;;;;;2.45;1.70;;;22.50;1.00;;;;;;7357689;19;20018;-62
2022/06/07 10:55:39;;;;;;;2.03;0.80;;;22.30;1.00;;;;;;7361369;19;20056;-62
2022/06/07 10:58:27;;;;;;;1.38;1.00;;;22.90;1.00;;;;;;7357844;19;20013;-62
2022/06/07 11:01:02;;;;;;;2.55;0.98;;;21.80;1.00;;;;;;7362695;19;20477;-62
2022/06/07 11:03:47;;;;;;;1.35;0.80;;;23.00;1.00;;;;;;7358182;19;20010;-62
2022/06/07 11:09:22;;;;;;;2.15;0.63;;;23.60;1.00;;;;;;7360242;19;20030;-66
2022/06/07 11:11:59;;;;;;;1.20;0.70;;;23.50;1.00;;;;;;7384320;19;20010;-62
2022/06/07 11:14:40;;;;;;;2.28;0.90;;;23.50;1.00;;;;;;7358162;19;20669;-61
2022/06/07 11:17:21;;;;;;;1.23;0.90;;;23.40;1.00;;;;;;7356666;19;20018;-63
2022/06/07 11:19:53;;;;;;;2.53;1.10;;;23.20;1.00;;;;;;7361234;19;20022;-62
2022/06/07 11:22:35;;;;;;;2.40;0.60;;;22.60;1.00;;;;;;7361326;19;20078;-61
2022/06/07 11:25:30;;;;;;;1.55;0.82;;;22.90;1.00;;;;;;7363485;19;20014;-61
2022/06/07 11:28:02;;;;;;;1.30;0.60;;;22.30;1.00;;;;;;7364480;19;20770;-63
2022/06/07 11:30:47;;;;;;;2.80;1.10;;;22.00;1.00;;;;;;7366806;19;20015;-62
2022/06/07 11:33:42;;;;;;;2.33;0.90;;;21.50;1.00;;;;;;7367483;19;20038;-62
2022/06/07 11:36:29;;;;;;;1.95;0.82;;;21.90;1.00;;;;;;7364616;19;20097;-64
2022/06/07 11:39:20;;;;;;;2.97;0.80;;;21.30;1.00;;;;;;7387760;19;20693;-61
2022/06/07 11:41:54;;;;;;;1.27;0.80;;;21.10;1.00;;;;;;7368644;19;20026;-61
2022/06/07 11:44:51;;;;;;;1.23;0.85;;;20.70;1.00;;;;;;7362192;19;20015;-62
2022/06/07 11:47:35;;;;;;;2.38;0.90;;;21.10;1.00;;;;;;7364501;19;20624;-61
2022/06/07 11:50:29;;;;;;;2.00;0.85;;;21.20;1.00;;;;;;7367175;19;20018;-62
2022/06/07 11:53:15;;;;;;;1.35;0.88;;;21.00;1.00;;;;;;7365782;19;20014;-61
2022/06/07 11:55:49;;;;;;;1.90;1.10;;;21.30;1.00;;;;;;7366483;19;20018;-62
2022/06/07 11:58:19;;;;;;;1.30;0.90;;;21.50;1.00;;;;;;7363282;19;20089;-63
2022/06/07 12:00:53;;;;;;;3.67;1.15;;;21.70;1.00;;;;;;7368372;19;20014;-62
2022/06/07 12:03:36;;;;;;;1.00;0.85;;;21.90;1.00;;;;;;7361843;19;20469;-60
2022/06/07 12:06:26;;;;;;;3.38;2.03;;;22.70;1.00;;;;;;7385527;19;20014;-62
2022/06/07 12:09:03;;;;;;;2.65;1.08;;;22.60;1.00;;;;;;7364512;19;20058;-61
2022/06/07 12:11:42;;;;;;;1.90;0.90;;;22.10;1.00;;;;;;7366210;19;20018;-61
2022/06/07 12:14:42;;;;;;;1.00;0.80;;;22.10;1.00;;;;;;7362234;19;20015;-60
2022/06/07 12:17:29;;;;;;;2.05;0.82;;;21.30;1.00;;;;;;7360926;19;20032;-62
2022/06/07 12:20:00;;;;;;;2.28;1.02;;;21.70;1.00;;;;;;7366574;19;20140;-61
2022/06/07 12:22:42;;;;;;;2.78;1.00;;;21.40;1.00;;;;;;7366589;19;20279;-61
2022/06/07 12:25:19;;;;;;;1.80;0.95;;;21.30;1.00;;;;;;7364753;19;20003;-62
2022/06/07 12:27:54;;;;;;;2.47;1.15;;;21.00;1.00;;;;;;7362371;19;20363;-62
2022/06/07 12:30:28;;;;;;;3.38;1.17;;;21.20;1.00;;;;;;7367726;19;20020;-62
2022/06/07 12:32:59;;;;;;;2.92;0.82;;;21.20;1.00;;;;;;7384143;19;20025;-61
2022/06/07 12:35:33;;;;;;;4.60;1.30;;;21.40;1.00;;;;;;7363031;19;20443;-64
2022/06/07 12:38:04;;;;;;;1.38;1.02;;;21.80;1.00;;;;;;7362177;19;20018;-61
2022/06/07 15:24:07;;;;;;;2.17;0.93;;;22.80;1.00;;;;;;7261133;19;2004329;-62
2022/06/07 15:26:37;;;;;;;2.00;1.00;;;23.30;1.00;;;;;;7390627;19;20031;-62
2022/06/07 15:29:07;;;;;;;1.92;1.02;;;23.70;1.00;;;;;;7368918;19;20014;-61
2022/06/07 15:31:37;;;;;;;2.20;0.90;;;23.70;1.00;;;;;;7370547;19;20008;-61
2022/06/07 15:34:09;;;;;;;2.22;0.82;;;23.50;1.00;;;;;;7362701;19;20014;-62
2022/06/07 15:36:41;;;;;;;1.30;0.80;;;23.20;1.00;;;;;;7368914;19;20931;-62
2022/06/07 15:39:15;;;;;;;1.02;0.90;;;23.00;1.00;;;;;;7369045;19;20073;-63
2022/06/07 15:44:52;;;;;;;3.88;0.90;;;23.50;1.00;;;;;;7366549;19;20002;-61
2022/06/07 15:47:22;;;;;;;2.28;0.70;;;22.80;1.00;;;;;;7367012;19;20014;-62
2022/06/07 15:49:52;;;;;;;1.10;0.85;;;22.90;1.00;;;;;;7369210;19;20010;-62
2022/06/07 15:52:22;;;;;;;1.85;0.68;;;22.90;1.00;;;;;;7362179;19;20010;-61
2022/06/07 15:54:55;;;;;;;2.17;1.00;;;22.90;1.00;;;;;;7368768;19;20018;-61
2022/06/07 15:59:02;;;;;;;1.30;0.90;;;22.90;1.00;;;;;;7366413;19;20014;-61
2022/06/07 16:00:15;;;;;;;2.15;0.95;;;22.90;1.00;;;;;;7368205;19;20014;-61
2022/06/07 16:02:45;;;;;;;1.50;0.90;;;22.60;1.00;;;;;;7382735;19;20096;-61
2022/06/07 16:05:16;;;;;;;0.90;0.80;;;22.50;1.00;;;;;;7365540;19;20017;-61
2022/06/07 16:07:46;;;;;;;3.67;0.95;;;22.40;1.00;;;;;;7367515;19;20385;-61
2022/06/07 16:10:20;;;;;;;1.60;0.88;;;23.00;1.00;;;;;;7364620;19;20014;-60
2022/06/07 16:12:49;;;;;;;0.80;0.70;;;23.00;1.00;;;;;;7360844;19;20015;-61
2022/06/07 16:15:20;;;;;;;1.00;0.70;;;22.90;1.00;;;;;;7367861;19;20086;-61
2022/06/07 16:17:50;;;;;;;1.35;0.70;;;22.90;1.00;;;;;;7390161;19;20507;-62
2022/06/07 16:20:22;;;;;;;1.20;0.68;;;22.40;1.00;;;;;;7368182;19;20002;-60
2022/06/07 16:22:52;;;;;;;1.17;0.57;;;22.70;1.00;;;;;;7359272;19;20082;-61
2022/06/07 16:25:25;;;;;;;1.08;0.70;;;23.10;1.00;;;;;;7366420;19;20014;-60
2022/06/07 16:33:23;;;;;;;2.88;0.70;;;22.50;1.00;;;;;;7357489;19;20136;-61
2022/06/07 16:35:57;;;;;;;1.10;0.80;;;22.40;1.00;;;;;;7388175;19;20021;-61
2022/06/07 16:38:30;;;;;;;2.13;1.10;;;22.10;1.00;;;;;;7367875;19;20092;-60
2022/06/07 16:41:02;;;;;;;6.43;1.50;;;21.70;1.00;;;;;;7367244;19;20018;-60
2022/06/07 16:46:17;;;;;;;2.83;0.70;;;20.00;1.00;;;;;;7366688;19;20015;-61